Explorer — DHRP — position and weather

sailwx.info

Track history (hours):
 
Tides and Currents Weather Stations Pressure Air Temp Water Temp Dewpoint Dewpoint Depression Visibility Wind Speed Wind Dir Waves Ship Positions

Explorer

Last reported at 2013-Aug-10 09:22 UTC. Time now 2014-Aug-20 20:33 UTC.
Position N 38°33' E 020°44'.
Warning: this ship's position is years out of date!

Length 41 m; draft 3 m.

Type: Pleasure craft. MMSI: 211293610.

Date/timePositionNaut miles runAvg speedWind from/ knotsBaromVisibWave heightAir tempDewpointWater temp
2013-Aug-10 09:22N 38°33' E 020°44'8 9.2
2013-Aug-10 08:31N 38°26' E 020°43'4 0.8
2013-Aug-10 04:18N 38°22' E 020°43'1 0.1
2013-Aug-09 14:06N 38°23' E 020°44'14 1.6
2013-Aug-09 05:09N 38°09' E 020°47'0 0.0
2013-Aug-09 03:15N 38°09' E 020°47'0 0.0
2013-Aug-09 02:24N 38°09' E 020°47'0 0.0
2013-Aug-09 00:27N 38°09' E 020°47'0 0.0
2013-Aug-08 23:24N 38°09' E 020°47'0 0.0
2013-Aug-08 22:25N 38°09' E 020°47'0 0.0
2013-Aug-08 20:24N 38°09' E 020°47'3 0.7
2013-Aug-08 15:32N 38°07' E 020°49'4 1.3
2013-Aug-08 12:23N 38°04' E 020°45'  
2013-Aug-05 12:06N 38°03' E 020°47'6 2.2
2013-Aug-05 09:17N 38°09' E 020°47'0 0.0
2013-Aug-05 05:28N 38°09' E 020°47'0 0.0
2013-Aug-05 04:26N 38°09' E 020°47'0 0.0
2013-Aug-05 01:32N 38°09' E 020°47'0 0.0
2013-Aug-05 00:05N 38°09' E 020°47'0 0.0
2013-Aug-04 23:26N 38°09' E 020°47'0 0.0
2013-Aug-04 22:05N 38°09' E 020°47'0 0.0
2013-Aug-04 15:25N 38°09' E 020°47'1 0.2
2013-Aug-04 10:22N 38°10' E 020°48'10 8.7
2013-Aug-04 09:10N 38°16' E 020°59'6 9.1
2013-Aug-04 08:31N 38°19' E 021°05'2 1.0
2013-Aug-04 06:33N 38°20' E 021°07'0 0.0
2013-Aug-04 02:27N 38°20' E 021°07'0 0.0
2013-Aug-04 01:33N 38°20' E 021°07'0 0.0
2013-Aug-04 00:33N 38°20' E 021°07'1 0.1
2013-Aug-03 15:05N 38°19' E 021°07'4 7.3
2013-Aug-03 14:31N 38°17' E 021°12'8 8.5
2013-Aug-03 13:31N 38°16' E 021°23'8 8.1
2013-Aug-03 12:30N 38°18' E 021°33'3 3.4
2013-Aug-03 11:29N 38°20' E 021°36'0 0.0
2013-Aug-03 10:29N 38°20' E 021°36'0 0.0
2013-Aug-03 09:32N 38°20' E 021°36'0 0.0
2013-Aug-03 08:26N 38°20' E 021°36'0 0.0
2013-Aug-03 07:29N 38°20' E 021°36'0 0.0
2013-Aug-03 06:32N 38°20' E 021°36'0 0.0
2013-Aug-03 05:29N 38°20' E 021°36'0 0.0
2013-Aug-03 04:29N 38°20' E 021°36'0 0.0
2013-Aug-03 03:29N 38°20' E 021°36'0 0.0
2013-Aug-03 02:32N 38°20' E 021°36'0 0.0
2013-Aug-03 01:30N 38°20' E 021°36'0 0.0
2013-Aug-03 00:29N 38°20' E 021°36'0 0.0
2013-Aug-02 23:29N 38°20' E 021°36'0 0.0
2013-Aug-02 22:27N 38°20' E 021°36'0 0.0
2013-Aug-02 21:32N 38°20' E 021°36'0 0.0
2013-Aug-02 20:29N 38°20' E 021°36'0 0.0
2013-Aug-02 19:33N 38°20' E 021°36'0 0.0
2013-Aug-02 18:29N 38°20' E 021°36'0 0.0
2013-Aug-02 17:29N 38°20' E 021°36'0 0.0
2013-Aug-02 16:26N 38°20' E 021°36'0 0.0
2013-Aug-02 15:29N 38°20' E 021°36'0 0.0
2013-Aug-02 14:29N 38°20' E 021°36'0 0.0
2013-Aug-02 13:29N 38°20' E 021°36'0 0.0
2013-Aug-02 12:28N 38°20' E 021°36'1 0.8
2013-Aug-02 11:32N 38°20' E 021°37'8 8.5
2013-Aug-02 10:33N 38°20' E 021°48'  
Track history (hours):
 
Tides and Currents Weather Stations Pressure Air Temp Water Temp Dewpoint Dewpoint Depression Visibility Wind Speed Wind Dir Waves Ship Positions

Explorer

Last reported at 2013-Aug-10 09:22 UTC. Time now 2014-Aug-20 20:33 UTC.
Position N 38°33' E 020°44'.
Warning: this ship's position is years out of date!

Length 41 m; draft 3 m.

Type: Pleasure craft. MMSI: 211293610.

Date/timePositionNaut miles runAvg speedWind from/ knotsBaromVisibWave heightAir tempDewpointWater temp
2013-Aug-10 09:22N 38°33' E 020°44'8 9.2
2013-Aug-10 08:31N 38°26' E 020°43'4 0.8
2013-Aug-10 04:18N 38°22' E 020°43'1 0.1
2013-Aug-09 14:06N 38°23' E 020°44'14 1.6
2013-Aug-09 05:09N 38°09' E 020°47'0 0.0
2013-Aug-09 03:15N 38°09' E 020°47'0 0.0
2013-Aug-09 02:24N 38°09' E 020°47'0 0.0
2013-Aug-09 00:27N 38°09' E 020°47'0 0.0
2013-Aug-08 23:24N 38°09' E 020°47'0 0.0
2013-Aug-08 22:25N 38°09' E 020°47'0 0.0
2013-Aug-08 20:24N 38°09' E 020°47'3 0.7
2013-Aug-08 15:32N 38°07' E 020°49'4 1.3
2013-Aug-08 12:23N 38°04' E 020°45'  
2013-Aug-05 12:06N 38°03' E 020°47'6 2.2
2013-Aug-05 09:17N 38°09' E 020°47'0 0.0
2013-Aug-05 05:28N 38°09' E 020°47'0 0.0
2013-Aug-05 04:26N 38°09' E 020°47'0 0.0
2013-Aug-05 01:32N 38°09' E 020°47'0 0.0
2013-Aug-05 00:05N 38°09' E 020°47'0 0.0
2013-Aug-04 23:26N 38°09' E 020°47'0 0.0
2013-Aug-04 22:05N 38°09' E 020°47'0 0.0
2013-Aug-04 15:25N 38°09' E 020°47'1 0.2
2013-Aug-04 10:22N 38°10' E 020°48'10 8.7
2013-Aug-04 09:10N 38°16' E 020°59'6 9.1
2013-Aug-04 08:31N 38°19' E 021°05'2 1.0
2013-Aug-04 06:33N 38°20' E 021°07'0 0.0
2013-Aug-04 02:27N 38°20' E 021°07'0 0.0
2013-Aug-04 01:33N 38°20' E 021°07'0 0.0
2013-Aug-04 00:33N 38°20' E 021°07'1 0.1
2013-Aug-03 15:05N 38°19' E 021°07'4 7.3
2013-Aug-03 14:31N 38°17' E 021°12'8 8.5
2013-Aug-03 13:31N 38°16' E 021°23'8 8.1
2013-Aug-03 12:30N 38°18' E 021°33'3 3.4
2013-Aug-03 11:29N 38°20' E 021°36'0 0.0
2013-Aug-03 10:29N 38°20' E 021°36'0 0.0
2013-Aug-03 09:32N 38°20' E 021°36'0 0.0
2013-Aug-03 08:26N 38°20' E 021°36'0 0.0
2013-Aug-03 07:29N 38°20' E 021°36'0 0.0
2013-Aug-03 06:32N 38°20' E 021°36'0 0.0
2013-Aug-03 05:29N 38°20' E 021°36'0 0.0
2013-Aug-03 04:29N 38°20' E 021°36'0 0.0
2013-Aug-03 03:29N 38°20' E 021°36'0 0.0
2013-Aug-03 02:32N 38°20' E 021°36'0 0.0
2013-Aug-03 01:30N 38°20' E 021°36'0 0.0
2013-Aug-03 00:29N 38°20' E 021°36'0 0.0
2013-Aug-02 23:29N 38°20' E 021°36'0 0.0
2013-Aug-02 22:27N 38°20' E 021°36'0 0.0
2013-Aug-02 21:32N 38°20' E 021°36'0 0.0
2013-Aug-02 20:29N 38°20' E 021°36'0 0.0
2013-Aug-02 19:33N 38°20' E 021°36'0 0.0
2013-Aug-02 18:29N 38°20' E 021°36'0 0.0
2013-Aug-02 17:29N 38°20' E 021°36'0 0.0
2013-Aug-02 16:26N 38°20' E 021°36'0 0.0
2013-Aug-02 15:29N 38°20' E 021°36'0 0.0
2013-Aug-02 14:29N 38°20' E 021°36'0 0.0
2013-Aug-02 13:29N 38°20' E 021°36'0 0.0
2013-Aug-02 12:28N 38°20' E 021°36'1 0.8
2013-Aug-02 11:32N 38°20' E 021°37'8 8.5
2013-Aug-02 10:33N 38°20' E 021°48'  

Dump ship's entire track history